sensor_id;sensor_type;location;lat;lon;timestamp;P1;durP1;ratioP1;P2;durP2;ratioP2
63536;SDS011;49686;51.880;5.632;2023-10-19T00:01:57;11.80;;;8.68;;
63536;SDS011;49686;51.880;5.632;2023-10-19T00:04:24;10.10;;;7.80;;
63536;SDS011;49686;51.880;5.632;2023-10-19T00:06:51;12.75;;;8.65;;
63536;SDS011;49686;51.880;5.632;2023-10-19T00:09:18;11.48;;;8.07;;
63536;SDS011;49686;51.880;5.632;2023-10-19T00:11:46;10.52;;;8.73;;
63536;SDS011;49686;51.880;5.632;2023-10-19T00:14:13;11.75;;;9.70;;
63536;SDS011;49686;51.880;5.632;2023-10-19T00:16:40;12.75;;;9.73;;
63536;SDS011;49686;51.880;5.632;2023-10-19T00:19:07;13.23;;;9.32;;
63536;SDS011;49686;51.880;5.632;2023-10-19T00:21:34;13.07;;;9.50;;
63536;SDS011;49686;51.880;5.632;2023-10-19T00:24:01;14.20;;;10.15;;
63536;SDS011;49686;51.880;5.632;2023-10-19T00:26:28;15.02;;;10.75;;
63536;SDS011;49686;51.880;5.632;2023-10-19T00:28:56;13.35;;;9.75;;
63536;SDS011;49686;51.880;5.632;2023-10-19T00:31:23;15.13;;;10.95;;
63536;SDS011;49686;51.880;5.632;2023-10-19T00:33:50;12.77;;;10.13;;
63536;SDS011;49686;51.880;5.632;2023-10-19T00:36:17;14.95;;;10.65;;
63536;SDS011;49686;51.880;5.632;2023-10-19T00:38:44;13.93;;;10.20;;
63536;SDS011;49686;51.880;5.632;2023-10-19T00:41:11;13.93;;;10.85;;
63536;SDS011;49686;51.880;5.632;2023-10-19T00:43:38;14.65;;;11.02;;
63536;SDS011;49686;51.880;5.632;2023-10-19T00:46:08;14.57;;;9.32;;
63536;SDS011;49686;51.880;5.632;2023-10-19T00:48:35;13.60;;;10.60;;
63536;SDS011;49686;51.880;5.632;2023-10-19T00:51:03;13.63;;;10.83;;
63536;SDS011;49686;51.880;5.632;2023-10-19T00:53:30;13.35;;;10.13;;
63536;SDS011;49686;51.880;5.632;2023-10-19T00:55:57;13.70;;;10.50;;
63536;SDS011;49686;51.880;5.632;2023-10-19T00:58:24;14.88;;;10.93;;
63536;SDS011;49686;51.880;5.632;2023-10-19T01:00:51;15.75;;;10.95;;
63536;SDS011;49686;51.880;5.632;2023-10-19T01:03:19;14.25;;;11.18;;
63536;SDS011;49686;51.880;5.632;2023-10-19T01:05:46;14.80;;;11.38;;
63536;SDS011;49686;51.880;5.632;2023-10-19T01:08:13;15.15;;;11.40;;
63536;SDS011;49686;51.880;5.632;2023-10-19T01:10:40;14.30;;;10.40;;
63536;SDS011;49686;51.880;5.632;2023-10-19T01:13:07;14.98;;;10.82;;
63536;SDS011;49686;51.880;5.632;2023-10-19T01:15:34;15.27;;;11.82;;
63536;SDS011;49686;51.880;5.632;2023-10-19T01:18:01;14.60;;;10.73;;
63536;SDS011;49686;51.880;5.632;2023-10-19T01:20:31;14.15;;;10.52;;
63536;SDS011;49686;51.880;5.632;2023-10-19T01:23:00;13.00;;;9.90;;
63536;SDS011;49686;51.880;5.632;2023-10-19T01:25:28;13.95;;;10.45;;
63536;SDS011;49686;51.880;5.632;2023-10-19T01:27:55;14.52;;;11.32;;
63536;SDS011;49686;51.880;5.632;2023-10-19T01:30:21;14.60;;;10.15;;
63536;SDS011;49686;51.880;5.632;2023-10-19T01:32:48;14.13;;;10.13;;
63536;SDS011;49686;51.880;5.632;2023-10-19T01:35:15;13.75;;;10.23;;
63536;SDS011;49686;51.880;5.632;2023-10-19T01:37:42;16.15;;;11.02;;
63536;SDS011;49686;51.880;5.632;2023-10-19T01:40:11;14.10;;;10.52;;
63536;SDS011;49686;51.880;5.632;2023-10-19T01:45:05;12.38;;;9.55;;
63536;SDS011;49686;51.880;5.632;2023-10-19T01:47:32;12.02;;;8.57;;
63536;SDS011;49686;51.880;5.632;2023-10-19T01:49:59;12.50;;;9.20;;
63536;SDS011;49686;51.880;5.632;2023-10-19T01:52:26;13.48;;;9.07;;
63536;SDS011;49686;51.880;5.632;2023-10-19T01:54:53;14.52;;;9.30;;
63536;SDS011;49686;51.880;5.632;2023-10-19T01:57:21;12.52;;;9.52;;
63536;SDS011;49686;51.880;5.632;2023-10-19T01:59:48;13.95;;;9.23;;
63536;SDS011;49686;51.880;5.632;2023-10-19T02:02:15;12.32;;;8.88;;
63536;SDS011;49686;51.880;5.632;2023-10-19T02:04:42;11.43;;;8.65;;
63536;SDS011;49686;51.880;5.632;2023-10-19T02:07:09;12.88;;;9.30;;
63536;SDS011;49686;51.880;5.632;2023-10-19T02:09:35;11.90;;;9.05;;
63536;SDS011;49686;51.880;5.632;2023-10-19T02:12:02;13.32;;;8.85;;
63536;SDS011;49686;51.880;5.632;2023-10-19T02:14:30;13.77;;;9.85;;
63536;SDS011;49686;51.880;5.632;2023-10-19T02:19:27;10.67;;;7.57;;
63536;SDS011;49686;51.880;5.632;2023-10-19T02:21:55;9.50;;;7.25;;
63536;SDS011;49686;51.880;5.632;2023-10-19T02:24:22;11.18;;;8.40;;
63536;SDS011;49686;51.880;5.632;2023-10-19T02:26:50;12.43;;;9.20;;
63536;SDS011;49686;51.880;5.632;2023-10-19T02:29:18;12.85;;;9.20;;
63536;SDS011;49686;51.880;5.632;2023-10-19T02:31:46;11.50;;;8.20;;
63536;SDS011;49686;51.880;5.632;2023-10-19T02:34:13;11.82;;;8.00;;
63536;SDS011;49686;51.880;5.632;2023-10-19T02:36:41;10.35;;;7.25;;
63536;SDS011;49686;51.880;5.632;2023-10-19T02:39:09;9.70;;;8.13;;
63536;SDS011;49686;51.880;5.632;2023-10-19T02:41:37;10.43;;;7.13;;
63536;SDS011;49686;51.880;5.632;2023-10-19T02:44:07;9.90;;;7.32;;
63536;SDS011;49686;51.880;5.632;2023-10-19T02:46:35;10.90;;;6.95;;
63536;SDS011;49686;51.880;5.632;2023-10-19T02:49:04;11.20;;;7.05;;
63536;SDS011;49686;51.880;5.632;2023-10-19T02:51:31;9.00;;;6.82;;
63536;SDS011;49686;51.880;5.632;2023-10-19T02:53:58;9.18;;;7.00;;
63536;SDS011;49686;51.880;5.632;2023-10-19T02:56:25;9.60;;;6.45;;
63536;SDS011;49686;51.880;5.632;2023-10-19T02:58:52;9.05;;;6.43;;
63536;SDS011;49686;51.880;5.632;2023-10-19T03:01:19;8.88;;;6.30;;
63536;SDS011;49686;51.880;5.632;2023-10-19T03:03:48;8.48;;;6.13;;
63536;SDS011;49686;51.880;5.632;2023-10-19T03:06:19;8.80;;;5.63;;
63536;SDS011;49686;51.880;5.632;2023-10-19T03:08:47;7.43;;;5.88;;
63536;SDS011;49686;51.880;5.632;2023-10-19T03:11:14;8.90;;;4.88;;
63536;SDS011;49686;51.880;5.632;2023-10-19T03:13:41;5.68;;;4.60;;
63536;SDS011;49686;51.880;5.632;2023-10-19T03:16:08;7.90;;;4.40;;
63536;SDS011;49686;51.880;5.632;2023-10-19T03:18:35;8.48;;;4.32;;
63536;SDS011;49686;51.880;5.632;2023-10-19T03:21:02;4.68;;;3.70;;
63536;SDS011;49686;51.880;5.632;2023-10-19T03:23:30;7.35;;;3.30;;
63536;SDS011;49686;51.880;5.632;2023-10-19T03:25:57;5.57;;;3.33;;
63536;SDS011;49686;51.880;5.632;2023-10-19T03:28:24;5.38;;;3.28;;
63536;SDS011;49686;51.880;5.632;2023-10-19T03:30:51;5.53;;;3.13;;
63536;SDS011;49686;51.880;5.632;2023-10-19T03:33:18;4.78;;;3.08;;
63536;SDS011;49686;51.880;5.632;2023-10-19T03:35:45;5.78;;;3.50;;
63536;SDS011;49686;51.880;5.632;2023-10-19T03:38:11;6.82;;;3.20;;
63536;SDS011;49686;51.880;5.632;2023-10-19T03:40:40;3.72;;;2.83;;
63536;SDS011;49686;51.880;5.632;2023-10-19T03:43:07;4.72;;;3.30;;
63536;SDS011;49686;51.880;5.632;2023-10-19T03:45:33;4.43;;;2.95;;
63536;SDS011;49686;51.880;5.632;2023-10-19T03:48:00;5.20;;;2.90;;
63536;SDS011;49686;51.880;5.632;2023-10-19T03:50:27;5.07;;;2.92;;
63536;SDS011;49686;51.880;5.632;2023-10-19T03:52:54;5.30;;;2.88;;
63536;SDS011;49686;51.880;5.632;2023-10-19T03:55:21;5.22;;;3.22;;
63536;SDS011;49686;51.880;5.632;2023-10-19T03:57:49;4.60;;;2.90;;
63536;SDS011;49686;51.880;5.632;2023-10-19T04:00:16;6.30;;;3.30;;
63536;SDS011;49686;51.880;5.632;2023-10-19T04:02:43;5.07;;;3.13;;
63536;SDS011;49686;51.880;5.632;2023-10-19T04:05:13;4.18;;;3.53;;
63536;SDS011;49686;51.880;5.632;2023-10-19T04:07:44;6.10;;;2.80;;
63536;SDS011;49686;51.880;5.632;2023-10-19T04:10:11;4.35;;;2.53;;
63536;SDS011;49686;51.880;5.632;2023-10-19T04:12:39;6.55;;;3.50;;
63536;SDS011;49686;51.880;5.632;2023-10-19T04:17:36;3.33;;;2.25;;
63536;SDS011;49686;51.880;5.632;2023-10-19T04:20:03;6.07;;;2.80;;
63536;SDS011;49686;51.880;5.632;2023-10-19T04:22:31;4.40;;;2.40;;
63536;SDS011;49686;51.880;5.632;2023-10-19T04:24:58;6.25;;;2.80;;
63536;SDS011;49686;51.880;5.632;2023-10-19T04:27:25;2.75;;;2.42;;
63536;SDS011;49686;51.880;5.632;2023-10-19T04:29:52;7.07;;;2.53;;
63536;SDS011;49686;51.880;5.632;2023-10-19T04:32:20;4.68;;;2.63;;
63536;SDS011;49686;51.880;5.632;2023-10-19T04:34:47;4.55;;;2.40;;
63536;SDS011;49686;51.880;5.632;2023-10-19T04:37:13;7.43;;;3.17;;
63536;SDS011;49686;51.880;5.632;2023-10-19T04:39:40;5.18;;;2.88;;
63536;SDS011;49686;51.880;5.632;2023-10-19T04:42:07;4.25;;;2.78;;
63536;SDS011;49686;51.880;5.632;2023-10-19T04:44:34;6.20;;;3.50;;
63536;SDS011;49686;51.880;5.632;2023-10-19T04:47:01;5.43;;;2.78;;
63536;SDS011;49686;51.880;5.632;2023-10-19T04:49:29;6.13;;;2.88;;
63536;SDS011;49686;51.880;5.632;2023-10-19T04:51:56;4.93;;;2.88;;
63536;SDS011;49686;51.880;5.632;2023-10-19T04:54:23;4.13;;;2.70;;
63536;SDS011;49686;51.880;5.632;2023-10-19T04:56:49;4.53;;;2.33;;
63536;SDS011;49686;51.880;5.632;2023-10-19T04:59:16;4.78;;;3.40;;
63536;SDS011;49686;51.880;5.632;2023-10-19T05:01:43;4.60;;;2.90;;
63536;SDS011;49686;51.880;5.632;2023-10-19T05:04:10;5.38;;;2.95;;
63536;SDS011;49686;51.880;5.632;2023-10-19T05:06:38;6.55;;;3.53;;
63536;SDS011;49686;51.880;5.632;2023-10-19T05:09:05;8.60;;;3.78;;
63536;SDS011;49686;51.880;5.632;2023-10-19T05:11:32;4.93;;;3.20;;
63536;SDS011;49686;51.880;5.632;2023-10-19T05:13:59;4.72;;;3.30;;
63536;SDS011;49686;51.880;5.632;2023-10-19T05:16:25;6.53;;;3.90;;
63536;SDS011;49686;51.880;5.632;2023-10-19T05:18:52;4.45;;;3.20;;
63536;SDS011;49686;51.880;5.632;2023-10-19T05:21:19;6.00;;;3.28;;
63536;SDS011;49686;51.880;5.632;2023-10-19T05:23:47;5.43;;;4.07;;
63536;SDS011;49686;51.880;5.632;2023-10-19T05:26:14;5.05;;;3.78;;
63536;SDS011;49686;51.880;5.632;2023-10-19T05:28:41;6.78;;;4.60;;
63536;SDS011;49686;51.880;5.632;2023-10-19T05:31:08;5.65;;;4.05;;
63536;SDS011;49686;51.880;5.632;2023-10-19T05:33:35;7.07;;;4.10;;
63536;SDS011;49686;51.880;5.632;2023-10-19T05:36:02;5.70;;;3.92;;
63536;SDS011;49686;51.880;5.632;2023-10-19T05:38:29;5.70;;;4.03;;
63536;SDS011;49686;51.880;5.632;2023-10-19T05:40:58;7.40;;;3.90;;
63536;SDS011;49686;51.880;5.632;2023-10-19T05:43:24;7.70;;;4.95;;
63536;SDS011;49686;51.880;5.632;2023-10-19T05:45:51;5.25;;;3.40;;
63536;SDS011;49686;51.880;5.632;2023-10-19T05:48:19;6.68;;;3.72;;
63536;SDS011;49686;51.880;5.632;2023-10-19T05:50:46;8.33;;;4.70;;
63536;SDS011;49686;51.880;5.632;2023-10-19T05:53:13;6.28;;;3.78;;
63536;SDS011;49686;51.880;5.632;2023-10-19T05:55:40;5.43;;;3.60;;
63536;SDS011;49686;51.880;5.632;2023-10-19T05:58:08;4.65;;;3.65;;
63536;SDS011;49686;51.880;5.632;2023-10-19T06:00:35;7.15;;;3.47;;
63536;SDS011;49686;51.880;5.632;2023-10-19T06:03:01;5.20;;;3.28;;
63536;SDS011;49686;51.880;5.632;2023-10-19T06:05:29;7.03;;;3.38;;
63536;SDS011;49686;51.880;5.632;2023-10-19T06:07:57;6.15;;;3.60;;
63536;SDS011;49686;51.880;5.632;2023-10-19T06:10:24;5.57;;;3.35;;
63536;SDS011;49686;51.880;5.632;2023-10-19T06:12:53;9.00;;;3.47;;
63536;SDS011;49686;51.880;5.632;2023-10-19T06:15:22;5.40;;;2.97;;
63536;SDS011;49686;51.880;5.632;2023-10-19T06:17:49;5.18;;;3.10;;
63536;SDS011;49686;51.880;5.632;2023-10-19T06:20:16;4.85;;;2.67;;
63536;SDS011;49686;51.880;5.632;2023-10-19T06:22:43;4.35;;;2.67;;
63536;SDS011;49686;51.880;5.632;2023-10-19T06:25:10;5.60;;;2.90;;
63536;SDS011;49686;51.880;5.632;2023-10-19T06:27:37;6.50;;;3.17;;
63536;SDS011;49686;51.880;5.632;2023-10-19T06:30:04;7.05;;;3.03;;
63536;SDS011;49686;51.880;5.632;2023-10-19T06:32:33;5.95;;;2.67;;
63536;SDS011;49686;51.880;5.632;2023-10-19T06:35:00;5.53;;;2.40;;
63536;SDS011;49686;51.880;5.632;2023-10-19T06:37:27;6.38;;;2.78;;
63536;SDS011;49686;51.880;5.632;2023-10-19T06:39:54;6.20;;;2.58;;
63536;SDS011;49686;51.880;5.632;2023-10-19T06:42:21;4.57;;;2.70;;
63536;SDS011;49686;51.880;5.632;2023-10-19T06:44:48;4.75;;;2.20;;
63536;SDS011;49686;51.880;5.632;2023-10-19T06:47:15;5.15;;;2.38;;
63536;SDS011;49686;51.880;5.632;2023-10-19T06:49:43;3.60;;;2.20;;
63536;SDS011;49686;51.880;5.632;2023-10-19T06:52:10;5.40;;;2.45;;
63536;SDS011;49686;51.880;5.632;2023-10-19T06:54:37;5.57;;;2.40;;
63536;SDS011;49686;51.880;5.632;2023-10-19T06:57:03;6.50;;;3.00;;
63536;SDS011;49686;51.880;5.632;2023-10-19T06:59:30;5.13;;;2.30;;
63536;SDS011;49686;51.880;5.632;2023-10-19T07:01:57;4.63;;;2.33;;
63536;SDS011;49686;51.880;5.632;2023-10-19T07:04:24;5.78;;;2.67;;
63536;SDS011;49686;51.880;5.632;2023-10-19T07:06:52;6.28;;;2.20;;
63536;SDS011;49686;51.880;5.632;2023-10-19T07:09:19;5.53;;;2.22;;
63536;SDS011;49686;51.880;5.632;2023-10-19T07:11:46;5.90;;;3.22;;
63536;SDS011;49686;51.880;5.632;2023-10-19T07:14:12;4.72;;;2.60;;
63536;SDS011;49686;51.880;5.632;2023-10-19T07:16:39;7.90;;;2.17;;
63536;SDS011;49686;51.880;5.632;2023-10-19T07:19:06;7.63;;;2.10;;
63536;SDS011;49686;51.880;5.632;2023-10-19T07:21:33;6.03;;;2.15;;
63536;SDS011;49686;51.880;5.632;2023-10-19T07:24:01;4.45;;;2.63;;
63536;SDS011;49686;51.880;5.632;2023-10-19T07:26:28;7.95;;;2.20;;
63536;SDS011;49686;51.880;5.632;2023-10-19T07:28:55;6.10;;;2.08;;
63536;SDS011;49686;51.880;5.632;2023-10-19T07:31:22;6.53;;;2.20;;
63536;SDS011;49686;51.880;5.632;2023-10-19T07:33:49;4.80;;;2.20;;
63536;SDS011;49686;51.880;5.632;2023-10-19T07:36:16;10.15;;;2.15;;
63536;SDS011;49686;51.880;5.632;2023-10-19T07:38:43;4.50;;;2.08;;
63536;SDS011;49686;51.880;5.632;2023-10-19T07:41:11;6.45;;;2.10;;
63536;SDS011;49686;51.880;5.632;2023-10-19T07:43:37;5.68;;;2.70;;
63536;SDS011;49686;51.880;5.632;2023-10-19T07:46:04;5.25;;;2.08;;
63536;SDS011;49686;51.880;5.632;2023-10-19T07:48:31;6.10;;;2.30;;
63536;SDS011;49686;51.880;5.632;2023-10-19T07:50:58;8.85;;;2.40;;
63536;SDS011;49686;51.880;5.632;2023-10-19T07:53:25;4.28;;;2.03;;
63536;SDS011;49686;51.880;5.632;2023-10-19T07:55:52;5.88;;;2.00;;
63536;SDS011;49686;51.880;5.632;2023-10-19T07:58:20;4.95;;;2.30;;
63536;SDS011;49686;51.880;5.632;2023-10-19T08:00:47;6.60;;;2.28;;
63536;SDS011;49686;51.880;5.632;2023-10-19T08:03:13;4.22;;;1.70;;
63536;SDS011;49686;51.880;5.632;2023-10-19T08:05:40;7.88;;;2.88;;
63536;SDS011;49686;51.880;5.632;2023-10-19T08:08:07;5.22;;;1.95;;
63536;SDS011;49686;51.880;5.632;2023-10-19T08:10:34;3.42;;;2.03;;
63536;SDS011;49686;51.880;5.632;2023-10-19T08:13:01;4.47;;;2.05;;
63536;SDS011;49686;51.880;5.632;2023-10-19T08:15:30;6.97;;;2.13;;
63536;SDS011;49686;51.880;5.632;2023-10-19T08:17:57;7.03;;;2.03;;
63536;SDS011;49686;51.880;5.632;2023-10-19T08:20:24;6.45;;;2.10;;
63536;SDS011;49686;51.880;5.632;2023-10-19T08:22:52;6.32;;;2.40;;
63536;SDS011;49686;51.880;5.632;2023-10-19T08:25:20;7.30;;;2.60;;
63536;SDS011;49686;51.880;5.632;2023-10-19T08:27:48;8.93;;;3.28;;
63536;SDS011;49686;51.880;5.632;2023-10-19T08:30:15;9.45;;;3.72;;
63536;SDS011;49686;51.880;5.632;2023-10-19T08:32:48;6.40;;;3.00;;
63536;SDS011;49686;51.880;5.632;2023-10-19T08:35:15;8.07;;;3.00;;
63536;SDS011;49686;51.880;5.632;2023-10-19T08:37:43;8.48;;;2.85;;
63536;SDS011;49686;51.880;5.632;2023-10-19T08:40:11;7.15;;;3.00;;
63536;SDS011;49686;51.880;5.632;2023-10-19T08:42:38;5.30;;;2.70;;
63536;SDS011;49686;51.880;5.632;2023-10-19T08:45:05;5.30;;;2.50;;
63536;SDS011;49686;51.880;5.632;2023-10-19T08:47:32;11.65;;;2.90;;
63536;SDS011;49686;51.880;5.632;2023-10-19T08:50:01;6.00;;;2.65;;
63536;SDS011;49686;51.880;5.632;2023-10-19T08:52:29;7.63;;;2.42;;
63536;SDS011;49686;51.880;5.632;2023-10-19T08:54:56;8.90;;;2.58;;
63536;SDS011;49686;51.880;5.632;2023-10-19T08:57:23;6.43;;;2.38;;
63536;SDS011;49686;51.880;5.632;2023-10-19T08:59:50;5.93;;;2.30;;
63536;SDS011;49686;51.880;5.632;2023-10-19T09:02:16;5.05;;;2.40;;
63536;SDS011;49686;51.880;5.632;2023-10-19T09:04:43;8.38;;;2.65;;
63536;SDS011;49686;51.880;5.632;2023-10-19T09:07:15;8.00;;;2.70;;
63536;SDS011;49686;51.880;5.632;2023-10-19T09:09:43;5.75;;;2.85;;
63536;SDS011;49686;51.880;5.632;2023-10-19T09:12:11;6.63;;;2.08;;
63536;SDS011;49686;51.880;5.632;2023-10-19T09:14:37;6.95;;;2.45;;
63536;SDS011;49686;51.880;5.632;2023-10-19T09:17:04;8.07;;;2.50;;
63536;SDS011;49686;51.880;5.632;2023-10-19T09:19:35;6.38;;;2.60;;
63536;SDS011;49686;51.880;5.632;2023-10-19T09:22:03;10.30;;;3.05;;
63536;SDS011;49686;51.880;5.632;2023-10-19T09:24:32;9.07;;;3.25;;
63536;SDS011;49686;51.880;5.632;2023-10-19T09:26:59;7.38;;;2.70;;
63536;SDS011;49686;51.880;5.632;2023-10-19T09:29:26;8.77;;;3.33;;
63536;SDS011;49686;51.880;5.632;2023-10-19T09:31:52;8.30;;;3.10;;
63536;SDS011;49686;51.880;5.632;2023-10-19T09:34:21;6.55;;;2.70;;
63536;SDS011;49686;51.880;5.632;2023-10-19T09:36:49;7.03;;;2.90;;
63536;SDS011;49686;51.880;5.632;2023-10-19T09:39:18;8.15;;;2.78;;
63536;SDS011;49686;51.880;5.632;2023-10-19T09:41:46;7.10;;;2.80;;
63536;SDS011;49686;51.880;5.632;2023-10-19T09:44:14;9.38;;;2.90;;
63536;SDS011;49686;51.880;5.632;2023-10-19T09:46:45;6.93;;;2.90;;
63536;SDS011;49686;51.880;5.632;2023-10-19T09:49:14;6.75;;;3.33;;
63536;SDS011;49686;51.880;5.632;2023-10-19T09:51:41;8.50;;;2.80;;
63536;SDS011;49686;51.880;5.632;2023-10-19T09:54:32;8.80;;;3.15;;
63536;SDS011;49686;51.880;5.632;2023-10-19T09:57:10;7.13;;;2.28;;
63536;SDS011;49686;51.880;5.632;2023-10-19T09:59:40;5.97;;;2.67;;
63536;SDS011;49686;51.880;5.632;2023-10-19T10:02:10;8.93;;;3.30;;
63536;SDS011;49686;51.880;5.632;2023-10-19T10:04:38;7.75;;;3.03;;
63536;SDS011;49686;51.880;5.632;2023-10-19T10:07:06;3.92;;;2.70;;
63536;SDS011;49686;51.880;5.632;2023-10-19T10:09:34;10.33;;;2.50;;
63536;SDS011;49686;51.880;5.632;2023-10-19T10:12:16;7.85;;;2.45;;
63536;SDS011;49686;51.880;5.632;2023-10-19T10:14:52;6.20;;;1.65;;
63536;SDS011;49686;51.880;5.632;2023-10-19T10:17:24;11.73;;;2.42;;
63536;SDS011;49686;51.880;5.632;2023-10-19T10:19:53;7.45;;;1.55;;
63536;SDS011;49686;51.880;5.632;2023-10-19T10:22:21;7.10;;;1.90;;
63536;SDS011;49686;51.880;5.632;2023-10-19T10:24:48;9.13;;;2.00;;
63536;SDS011;49686;51.880;5.632;2023-10-19T10:27:22;7.28;;;2.53;;
63536;SDS011;49686;51.880;5.632;2023-10-19T10:29:55;6.80;;;1.27;;
63536;SDS011;49686;51.880;5.632;2023-10-19T10:32:42;4.97;;;1.30;;
63536;SDS011;49686;51.880;5.632;2023-10-19T10:35:09;7.03;;;1.67;;
63536;SDS011;49686;51.880;5.632;2023-10-19T10:37:36;5.45;;;1.42;;
63536;SDS011;49686;51.880;5.632;2023-10-19T10:40:04;7.65;;;1.65;;
63536;SDS011;49686;51.880;5.632;2023-10-19T10:42:33;7.35;;;1.60;;
63536;SDS011;49686;51.880;5.632;2023-10-19T10:45:00;10.88;;;2.17;;
63536;SDS011;49686;51.880;5.632;2023-10-19T10:47:27;6.35;;;1.55;;
63536;SDS011;49686;51.880;5.632;2023-10-19T10:49:54;9.50;;;2.00;;
63536;SDS011;49686;51.880;5.632;2023-10-19T10:52:26;6.45;;;1.73;;
63536;SDS011;49686;51.880;5.632;2023-10-19T10:54:55;6.82;;;1.85;;
63536;SDS011;49686;51.880;5.632;2023-10-19T10:57:22;4.20;;;1.50;;
63536;SDS011;49686;51.880;5.632;2023-10-19T11:00:02;7.28;;;1.70;;
63536;SDS011;49686;51.880;5.632;2023-10-19T11:02:30;10.05;;;1.73;;
63536;SDS011;49686;51.880;5.632;2023-10-19T11:04:57;9.35;;;1.95;;
63536;SDS011;49686;51.880;5.632;2023-10-19T11:07:24;8.23;;;1.92;;
63536;SDS011;49686;51.880;5.632;2023-10-19T11:09:51;10.60;;;2.13;;
63536;SDS011;49686;51.880;5.632;2023-10-19T11:12:20;8.02;;;1.45;;
63536;SDS011;49686;51.880;5.632;2023-10-19T11:14:53;10.63;;;2.05;;
63536;SDS011;49686;51.880;5.632;2023-10-19T11:17:22;9.85;;;1.77;;
63536;SDS011;49686;51.880;5.632;2023-10-19T11:19:49;8.95;;;1.90;;
63536;SDS011;49686;51.880;5.632;2023-10-19T11:22:16;7.78;;;1.90;;
63536;SDS011;49686;51.880;5.632;2023-10-19T11:24:43;8.13;;;1.77;;
63536;SDS011;49686;51.880;5.632;2023-10-19T11:27:09;6.55;;;1.73;;
63536;SDS011;49686;51.880;5.632;2023-10-19T11:29:36;8.50;;;2.22;;
63536;SDS011;49686;51.880;5.632;2023-10-19T11:32:03;9.25;;;2.10;;
63536;SDS011;49686;51.880;5.632;2023-10-19T11:34:32;6.07;;;2.33;;
63536;SDS011;49686;51.880;5.632;2023-10-19T11:36:59;9.63;;;3.03;;
63536;SDS011;49686;51.880;5.632;2023-10-19T11:39:27;8.37;;;2.90;;
63536;SDS011;49686;51.880;5.632;2023-10-19T11:41:54;11.38;;;3.13;;
63536;SDS011;49686;51.880;5.632;2023-10-19T11:44:21;9.13;;;2.30;;
63536;SDS011;49686;51.880;5.632;2023-10-19T11:46:48;10.77;;;2.80;;
63536;SDS011;49686;51.880;5.632;2023-10-19T11:49:15;9.65;;;2.28;;
63536;SDS011;49686;51.880;5.632;2023-10-19T11:51:44;7.53;;;2.15;;
63536;SDS011;49686;51.880;5.632;2023-10-19T11:54:10;7.22;;;2.20;;
63536;SDS011;49686;51.880;5.632;2023-10-19T11:56:37;9.43;;;2.33;;
63536;SDS011;49686;51.880;5.632;2023-10-19T11:59:04;6.45;;;2.22;;
63536;SDS011;49686;51.880;5.632;2023-10-19T12:01:31;9.48;;;2.70;;
63536;SDS011;49686;51.880;5.632;2023-10-19T12:03:58;7.35;;;2.47;;
63536;SDS011;49686;51.880;5.632;2023-10-19T12:06:25;6.97;;;2.03;;
63536;SDS011;49686;51.880;5.632;2023-10-19T12:08:53;8.05;;;2.38;;
63536;SDS011;49686;51.880;5.632;2023-10-19T12:11:20;13.52;;;3.10;;
63536;SDS011;49686;51.880;5.632;2023-10-19T12:13:48;8.77;;;2.45;;
63536;SDS011;49686;51.880;5.632;2023-10-19T12:16:15;8.50;;;2.17;;
63536;SDS011;49686;51.880;5.632;2023-10-19T12:18:43;8.40;;;2.40;;
63536;SDS011;49686;51.880;5.632;2023-10-19T12:21:10;10.52;;;2.30;;
63536;SDS011;49686;51.880;5.632;2023-10-19T12:23:38;10.25;;;2.30;;
63536;SDS011;49686;51.880;5.632;2023-10-19T12:26:06;9.82;;;2.30;;
63536;SDS011;49686;51.880;5.632;2023-10-19T12:28:33;9.70;;;2.63;;
63536;SDS011;49686;51.880;5.632;2023-10-19T12:31:00;9.15;;;2.25;;
63536;SDS011;49686;51.880;5.632;2023-10-19T12:33:27;10.35;;;2.30;;
63536;SDS011;49686;51.880;5.632;2023-10-19T12:35:54;10.40;;;2.42;;
63536;SDS011;49686;51.880;5.632;2023-10-19T12:38:22;9.98;;;2.45;;
63536;SDS011;49686;51.880;5.632;2023-10-19T12:40:49;7.03;;;2.10;;
63536;SDS011;49686;51.880;5.632;2023-10-19T12:43:18;10.07;;;2.05;;
63536;SDS011;49686;51.880;5.632;2023-10-19T12:45:45;8.43;;;1.73;;
63536;SDS011;49686;51.880;5.632;2023-10-19T12:48:12;9.55;;;1.90;;
63536;SDS011;49686;51.880;5.632;2023-10-19T12:50:38;8.55;;;1.85;;
63536;SDS011;49686;51.880;5.632;2023-10-19T12:53:05;9.70;;;1.90;;
63536;SDS011;49686;51.880;5.632;2023-10-19T12:55:33;11.50;;;2.20;;
63536;SDS011;49686;51.880;5.632;2023-10-19T12:58:00;8.55;;;2.42;;
63536;SDS011;49686;51.880;5.632;2023-10-19T13:00:28;9.55;;;1.95;;
63536;SDS011;49686;51.880;5.632;2023-10-19T13:02:58;9.30;;;2.50;;
63536;SDS011;49686;51.880;5.632;2023-10-19T13:05:26;11.40;;;2.80;;
63536;SDS011;49686;51.880;5.632;2023-10-19T13:07:53;7.80;;;1.80;;
63536;SDS011;49686;51.880;5.632;2023-10-19T13:10:20;9.93;;;2.40;;
63536;SDS011;49686;51.880;5.632;2023-10-19T13:12:47;10.48;;;1.73;;
63536;SDS011;49686;51.880;5.632;2023-10-19T13:15:14;8.88;;;1.70;;
63536;SDS011;49686;51.880;5.632;2023-10-19T13:17:42;9.88;;;1.80;;
63536;SDS011;49686;51.880;5.632;2023-10-19T13:20:10;7.00;;;1.90;;
63536;SDS011;49686;51.880;5.632;2023-10-19T13:22:37;8.90;;;3.03;;
63536;SDS011;49686;51.880;5.632;2023-10-19T13:25:04;6.97;;;1.73;;
63536;SDS011;49686;51.880;5.632;2023-10-19T13:27:31;10.68;;;2.03;;
63536;SDS011;49686;51.880;5.632;2023-10-19T13:29:58;8.65;;;2.10;;
63536;SDS011;49686;51.880;5.632;2023-10-19T13:32:28;11.90;;;2.67;;
63536;SDS011;49686;51.880;5.632;2023-10-19T13:34:56;9.10;;;2.40;;
63536;SDS011;49686;51.880;5.632;2023-10-19T13:37:23;10.55;;;2.35;;
63536;SDS011;49686;51.880;5.632;2023-10-19T13:39:50;7.75;;;2.22;;
63536;SDS011;49686;51.880;5.632;2023-10-19T13:42:17;9.52;;;2.33;;
63536;SDS011;49686;51.880;5.632;2023-10-19T13:44:44;8.43;;;1.90;;
63536;SDS011;49686;51.880;5.632;2023-10-19T13:47:11;11.20;;;2.30;;
63536;SDS011;49686;51.880;5.632;2023-10-19T13:49:37;9.55;;;2.40;;
63536;SDS011;49686;51.880;5.632;2023-10-19T13:52:06;6.43;;;2.00;;
63536;SDS011;49686;51.880;5.632;2023-10-19T13:54:32;9.70;;;2.28;;
63536;SDS011;49686;51.880;5.632;2023-10-19T13:57:02;8.82;;;1.92;;
63536;SDS011;49686;51.880;5.632;2023-10-19T13:59:29;10.23;;;1.95;;
63536;SDS011;49686;51.880;5.632;2023-10-19T14:01:56;8.88;;;1.90;;
63536;SDS011;49686;51.880;5.632;2023-10-19T14:04:23;8.75;;;2.38;;
63536;SDS011;49686;51.880;5.632;2023-10-19T14:06:50;8.93;;;2.10;;
63536;SDS011;49686;51.880;5.632;2023-10-19T14:09:18;9.18;;;1.83;;
63536;SDS011;49686;51.880;5.632;2023-10-19T14:11:45;12.68;;;2.00;;
63536;SDS011;49686;51.880;5.632;2023-10-19T14:14:11;10.65;;;2.45;;
63536;SDS011;49686;51.880;5.632;2023-10-19T14:16:38;8.18;;;1.95;;
63536;SDS011;49686;51.880;5.632;2023-10-19T14:19:05;7.93;;;2.40;;
63536;SDS011;49686;51.880;5.632;2023-10-19T14:21:32;10.38;;;2.28;;
63536;SDS011;49686;51.880;5.632;2023-10-19T14:23:59;8.25;;;2.15;;
63536;SDS011;49686;51.880;5.632;2023-10-19T14:26:27;9.80;;;2.53;;
63536;SDS011;49686;51.880;5.632;2023-10-19T14:28:54;9.50;;;2.95;;
63536;SDS011;49686;51.880;5.632;2023-10-19T14:31:20;9.98;;;2.10;;
63536;SDS011;49686;51.880;5.632;2023-10-19T14:38:13;9.82;;;2.28;;
63536;SDS011;49686;51.880;5.632;2023-10-19T14:40:40;8.32;;;1.90;;
63536;SDS011;49686;51.880;5.632;2023-10-19T14:43:07;10.30;;;2.03;;
63536;SDS011;49686;51.880;5.632;2023-10-19T14:45:34;8.82;;;2.13;;
63536;SDS011;49686;51.880;5.632;2023-10-19T14:48:01;8.55;;;2.00;;
63536;SDS011;49686;51.880;5.632;2023-10-19T14:50:29;8.10;;;2.13;;
63536;SDS011;49686;51.880;5.632;2023-10-19T14:52:56;7.85;;;2.45;;
63536;SDS011;49686;51.880;5.632;2023-10-19T14:55:25;5.28;;;1.85;;
63536;SDS011;49686;51.880;5.632;2023-10-19T14:57:52;5.72;;;1.92;;